Shearwater, Canada
Current Conditions -  °F | °C
As of 12:00 PM on Friday 24 Oct 2014 (Local Time) from CYHZ Reporting Station
Drizzle Drizzle  
Wind Chill: 55°   Ceiling: 200
Heat Index: 55°   Visibility: 0.75mi
Dew Point: 55°   Wind: 7mph
Humidity: 100%   Direction: 40°NE
Pressure: 29.54"   Gusts: NA
Location:  44.63°N, 63.52°W
Report Text: CYHZ 241500Z 04006KT 3/4SM R14/6000FT/D -DZ BR VV002 13/13 A2954 RMK FG8 SLP003 DENSITY ALT 800FT
Loading
Personal Weather Stations






























Interactive Weather Map
Tropical Storm Tracking
New forecast layout! Learn more

10-Day Weather Forecast

Advertisements
Track Severe Weather on mobile